»·PEaware :: N435B CYVR-KPAE

N435B :: CYVR-KPAE

FLIGHT INFORMATION

Flight Status: Arrived
Operator: Privately registered:
United States
More flights under this callsign
Pilot: Wayne R. (17783)
Aircraft: DEHAVILLAND DH-3 OTTER
(DHC3)
More flights by this aircraft type
Origin: CYVR Vancouver Intl
Canada
Destination: KPAE Paine Field/Snohomish Co.
United States
More flights between these airports :: More routes between these airports
Route:
File this flight plan on PilotEdge
Remarks:
Altitude:
(Current/Filed)
1,200ft
Speed:
(Current/Filed)
125kts
Departed: 12-Feb-20 05:22 PM
Arrived: 12-Feb-20 06:07 PM
Distance/Time
Traveled:
85nm/0:45
Distance/Time
To Go:
Arrived

Flight Plot

Page will automatically refresh every two minutes.


Map Options




Map Legend


Flown Route
Filed Route
Departure Airport
Arrival Airport
Navaid (VOR, NDB)
Fix

Horizontal Profiles

Position Reports

Time Latitude Longitude Heading Altitude Ground
Speed
12-Feb-20 17:21 49.189973 -123.206747 100 18ft 0kts
12-Feb-20 17:22 49.188208 -123.191255 99 331ft 91kts
12-Feb-20 17:23 49.174675 -123.159331 153 1900ft 101kts
12-Feb-20 17:24 49.145891 -123.146778 182 2448ft 128kts
12-Feb-20 17:25 49.109767 -123.160121 177 2161ft 145kts
12-Feb-20 17:26 49.072125 -123.146466 158 2431ft 138kts
12-Feb-20 17:27 49.037904 -123.120558 157 2726ft 136kts
12-Feb-20 17:28 49.005653 -123.096009 152 3362ft 125kts
12-Feb-20 17:29 48.976288 -123.068029 151 4061ft 123kts
12-Feb-20 17:30 48.947238 -123.040622 151 4761ft 123kts
12-Feb-20 17:31 48.917972 -123.013359 151 5465ft 123kts
12-Feb-20 17:32 48.887309 -122.985088 151 5845ft 142kts
12-Feb-20 17:33 48.851590 -122.952472 151 5839ft 148kts
12-Feb-20 17:33 48.824261 -122.921176 141 5838ft 147kts
12-Feb-20 17:35 48.787060 -122.874245 141 5642ft 150kts
12-Feb-20 17:36 48.756784 -122.836207 140 5315ft 136kts
12-Feb-20 17:36 48.732821 -122.805683 138 5056ft 134kts
12-Feb-20 17:37 48.704846 -122.768766 138 4751ft 133kts
12-Feb-20 17:39 48.672281 -122.725969 138 4396ft 132kts
12-Feb-20 17:40 48.644521 -122.689541 138 4093ft 132kts
12-Feb-20 17:40 48.622128 -122.658230 134 3843ft 131kts
12-Feb-20 17:41 48.597480 -122.621290 134 3827ft 121kts
12-Feb-20 17:43 48.568829 -122.578159 134 3464ft 139kts
12-Feb-20 17:43 48.545418 -122.542198 134 2716ft 145kts
12-Feb-20 17:44 48.519167 -122.502117 134 2474ft 120kts
12-Feb-20 17:45 48.499629 -122.463530 124 2561ft 113kts
12-Feb-20 17:46 48.480406 -122.423261 124 2587ft 127kts
12-Feb-20 17:47 48.459203 -122.377986 124 2292ft 134kts
12-Feb-20 17:48 48.438409 -122.333405 125 2198ft 127kts
12-Feb-20 17:49 48.414252 -122.299135 194 2203ft 125kts
12-Feb-20 17:50 48.379877 -122.306253 167 2195ft 127kts
12-Feb-20 17:51 48.345697 -122.293005 166 2199ft 127kts
12-Feb-20 17:52 48.311283 -122.279483 166 2199ft 128kts
12-Feb-20 17:53 48.276949 -122.264823 166 2199ft 128kts
12-Feb-20 17:54 48.242509 -122.250941 166 2199ft 128kts
12-Feb-20 17:55 48.208291 -122.237046 168 2199ft 127kts
12-Feb-20 17:56 48.173232 -122.230749 177 2200ft 127kts
12-Feb-20 17:57 48.138038 -122.226169 177 2199ft 126kts
12-Feb-20 17:58 48.102983 -122.221296 177 2199ft 126kts
12-Feb-20 17:59 48.068219 -122.216245 177 2199ft 125kts
12-Feb-20 18:00 48.039653 -122.233921 229 2199ft 115kts
12-Feb-20 18:01 48.015682 -122.266385 220 2199ft 118kts
12-Feb-20 18:02 47.985366 -122.287705 184 1818ft 124kts
12-Feb-20 18:03 47.954536 -122.285382 184 1615ft 78kts
12-Feb-20 18:04 47.935585 -122.285914 184 998ft 62kts
12-Feb-20 18:05 47.919104 -122.285782 181 572ft 43kts
12-Feb-20 18:06 47.914349 -122.283810 154 570ft 0kts
12-Feb-20 18:07 47.910988 -122.281962 87 582ft 22kts
12-Feb-20 18:08 47.910440 -122.277799 227 597ft 0kts
12-Feb-20 18:09 47.910440 -122.277799 227 597ft 0kts
12-Feb-20 18:10 47.910440 -122.277799 227 597ft 0kts
12-Feb-20 18:11 47.910440 -122.277799 227 597ft 0kts
12-Feb-20 18:12 47.910440 -122.277799 227 597ft 0kts
12-Feb-20 18:13 47.910440 -122.277799 227 597ft 0kts
12-Feb-20 18:14 47.910440 -122.277799 227 597ft 0kts
12-Feb-20 18:15 47.910440 -122.277799 227 597ft 0kts
12-Feb-20 18:16 47.910440 -122.277799 227 597ft 0kts
12-Feb-20 18:17 47.910440 -122.277799 227 597ft 0kts
12-Feb-20 18:18 47.910440 -122.277799 227 597ft 0kts
12-Feb-20 18:19 47.910440 -122.277799 227 597ft 0kts
12-Feb-20 18:20 47.910440 -122.277799 227 597ft 0kts
12-Feb-20 18:21 47.910440 -122.277799 227 597ft 0kts

Navigation Log

Ident Type
Flight plan parsing failed, navigation log unavailable